Time;durP1;ratioP1;P1;durP2;ratioP2;P2;SDS_P1;SDS_P2;PMS_P1;PMS_P2;Temp;Humidity;BMP_temperature;BMP_pressure;BME280_temperature;BME280_humidity;BME280_pressure;Samples;Min_cycle;Max_cycle;Signal;HPM_P1;HPM_P2
2022/06/06 00:00:30;;;;;;;0.10;0.10;;;14.70;99.90;;;;;;5087473;28;20206;-77
2022/06/06 00:03:01;;;;;;;0.75;0.15;;;14.70;99.90;;;;;;5086401;28;20198;-77
2022/06/06 00:05:31;;;;;;;0.25;0.20;;;14.80;99.90;;;;;;5087690;28;20267;-77
2022/06/06 00:08:03;;;;;;;0.85;0.25;;;14.80;99.90;;;;;;5088728;28;20723;-77
2022/06/06 00:10:34;;;;;;;1.65;0.20;;;14.80;99.90;;;;;;5087910;28;20560;-77
2022/06/06 00:13:04;;;;;;;0.73;0.30;;;14.80;99.90;;;;;;5089129;28;20195;-76
2022/06/06 00:15:37;;;;;;;0.50;0.20;;;14.90;99.90;;;;;;5088150;28;20217;-77
2022/06/06 00:18:09;;;;;;;0.57;0.30;;;15.00;99.90;;;;;;5085860;28;20491;-77
2022/06/06 00:20:40;;;;;;;1.23;0.20;;;15.10;99.90;;;;;;5088258;28;20198;-76
2022/06/06 00:23:10;;;;;;;0.85;0.10;;;15.10;99.90;;;;;;5089642;28;20186;-77
2022/06/06 00:25:41;;;;;;;0.20;0.20;;;15.10;99.90;;;;;;5086020;28;20210;-76
2022/06/06 00:28:11;;;;;;;0.10;0.10;;;15.10;99.90;;;;;;5089115;28;20195;-76
2022/06/06 00:30:44;;;;;;;0.25;0.20;;;15.20;99.90;;;;;;5086424;28;20198;-76
2022/06/06 00:36:03;;;;;;;0.20;0.20;;;15.30;99.90;;;;;;5112832;28;20344;-77
2022/06/06 00:38:34;;;;;;;1.30;0.30;;;15.40;99.90;;;;;;5109912;28;20301;-77
2022/06/06 00:41:05;;;;;;;2.08;0.20;;;15.40;99.90;;;;;;5108889;28;20191;-77
2022/06/06 00:43:36;;;;;;;0.55;0.20;;;15.40;99.90;;;;;;5111480;28;20299;-77
2022/06/06 00:46:11;;;;;;;2.15;0.30;;;15.40;99.90;;;;;;5112655;28;20218;-77
2022/06/06 00:48:43;;;;;;;2.85;0.30;;;15.60;99.90;;;;;;5106668;28;20194;-77
2022/06/06 00:51:16;;;;;;;0.10;0.10;;;15.60;99.90;;;;;;5096481;28;20194;-78
2022/06/06 00:53:49;;;;;;;0.57;0.20;;;15.70;99.90;;;;;;5104687;28;20252;-79
2022/06/06 00:56:24;;;;;;;0.95;0.40;;;15.70;99.90;;;;;;5112415;28;20244;-77
2022/06/06 00:58:59;;;;;;;2.20;0.25;;;15.60;99.90;;;;;;5110505;28;20222;-77
2022/06/06 01:01:33;;;;;;;0.30;0.17;;;15.70;99.90;;;;;;5113434;27;20208;-78
2022/06/06 01:04:05;;;;;;;0.60;0.40;;;15.80;99.90;;;;;;5109951;28;20244;-77
2022/06/06 01:06:41;;;;;;;1.75;0.20;;;15.90;99.90;;;;;;5112431;28;20190;-77
2022/06/06 01:09:12;;;;;;;1.95;0.40;;;16.10;99.90;;;;;;5110691;28;20222;-78
2022/06/06 01:11:47;;;;;;;1.38;0.30;;;16.10;99.90;;;;;;5105296;27;20562;-77
2022/06/06 01:14:21;;;;;;;0.25;0.13;;;16.20;99.90;;;;;;5105846;28;20653;-77
2022/06/06 01:17:02;;;;;;;1.35;0.20;;;16.30;99.90;;;;;;5108443;28;20205;-76
2022/06/06 01:19:54;;;;;;;0.82;0.30;;;16.20;99.90;;;;;;5101890;28;20221;-76
2022/06/06 01:22:55;;;;;;;1.15;0.30;;;16.30;99.90;;;;;;5096528;27;20278;-75
2022/06/06 01:25:45;;;;;;;0.93;0.30;;;16.40;99.90;;;;;;5109958;28;20568;-76
2022/06/06 01:29:08;;;;;;;2.40;0.30;;;16.40;99.90;;;;;;5109470;28;20190;-76
2022/06/06 01:31:45;;;;;;;2.03;0.20;;;16.40;99.70;;;;;;5037536;28;20243;-78
2022/06/06 01:34:23;;;;;;;0.82;0.13;;;16.40;99.90;;;;;;5044711;28;20378;-78
2022/06/06 01:36:55;;;;;;;2.30;0.13;;;16.40;99.90;;;;;;5093085;28;20270;-79
2022/06/06 01:39:28;;;;;;;1.00;0.20;;;16.50;99.90;;;;;;5108900;28;20218;-77
2022/06/06 01:42:11;;;;;;;0.52;0.30;;;16.50;99.90;;;;;;5107210;28;20195;-78
2022/06/06 01:44:49;;;;;;;0.30;0.10;;;16.50;99.90;;;;;;5110661;28;20701;-77
2022/06/06 01:47:26;;;;;;;0.35;0.10;;;16.50;99.90;;;;;;5107411;28;20209;-76
2022/06/06 01:49:57;;;;;;;0.40;0.17;;;16.60;99.90;;;;;;5105995;28;20202;-76
2022/06/06 01:52:28;;;;;;;0.20;0.17;;;16.60;99.30;;;;;;5101316;28;20207;-77
2022/06/06 01:55:00;;;;;;;0.28;0.20;;;16.50;99.60;;;;;;5108153;28;20683;-76
2022/06/06 01:57:31;;;;;;;0.43;0.17;;;16.60;99.90;;;;;;5090380;28;20210;-76
2022/06/06 02:00:02;;;;;;;1.08;0.20;;;16.60;97.60;;;;;;5098588;28;20203;-78
2022/06/06 02:02:34;;;;;;;2.40;0.20;;;16.60;98.80;;;;;;5106784;28;20611;-78
2022/06/06 02:05:08;;;;;;;1.20;0.20;;;16.60;99.60;;;;;;5102296;28;20202;-77
2022/06/06 02:07:39;;;;;;;2.20;0.17;;;16.60;99.10;;;;;;5109516;28;20226;-77
2022/06/06 02:10:11;;;;;;;1.63;0.20;;;16.60;98.70;;;;;;5108307;28;20202;-77
2022/06/06 02:12:43;;;;;;;0.35;0.30;;;16.60;98.30;;;;;;5102598;28;20620;-77
2022/06/06 02:15:15;;;;;;;1.48;0.20;;;16.60;98.60;;;;;;5110359;28;20190;-77
2022/06/06 02:17:48;;;;;;;0.20;0.20;;;16.60;97.20;;;;;;5108725;28;20194;-78
2022/06/06 02:20:21;;;;;;;1.90;0.35;;;16.60;98.60;;;;;;5103785;28;20203;-75
2022/06/06 02:22:52;;;;;;;0.55;0.30;;;16.60;97.10;;;;;;5118890;28;20201;-77
2022/06/06 02:25:23;;;;;;;0.95;0.30;;;16.60;96.00;;;;;;5117415;28;20701;-78
2022/06/06 02:27:54;;;;;;;1.10;0.28;;;16.70;97.40;;;;;;5110451;28;20257;-78
2022/06/06 02:30:27;;;;;;;0.63;0.20;;;16.90;97.90;;;;;;5111615;28;20201;-78
2022/06/06 02:33:00;;;;;;;0.57;0.20;;;17.00;97.90;;;;;;5114190;28;20199;-79
2022/06/06 02:35:32;;;;;;;0.30;0.20;;;17.10;98.60;;;;;;5110542;28;20191;-78
2022/06/06 02:38:03;;;;;;;1.42;0.20;;;17.10;96.60;;;;;;5102230;28;20191;-78
2022/06/06 02:40:34;;;;;;;0.73;0.30;;;17.00;97.90;;;;;;5092829;28;20190;-80
2022/06/06 02:43:04;;;;;;;0.43;0.10;;;17.00;97.60;;;;;;5110775;28;20218;-80
2022/06/06 02:45:35;;;;;;;0.10;0.10;;;17.10;96.80;;;;;;5109271;28;20658;-80
2022/06/06 02:48:09;;;;;;;0.30;0.28;;;17.10;98.00;;;;;;5109185;28;20623;-79
2022/06/06 02:50:40;;;;;;;0.50;0.20;;;17.10;98.00;;;;;;5110697;28;20194;-79
2022/06/06 02:53:10;;;;;;;0.80;0.20;;;17.10;97.70;;;;;;5109600;28;20190;-79
2022/06/06 02:55:41;;;;;;;0.60;0.20;;;17.20;96.80;;;;;;5112580;28;20190;-79
2022/06/06 02:58:12;;;;;;;1.08;0.25;;;17.20;96.70;;;;;;5113867;28;20214;-78
2022/06/06 03:00:43;;;;;;;1.73;0.30;;;17.20;96.90;;;;;;5114141;28;20666;-78
2022/06/06 03:03:15;;;;;;;1.50;0.50;;;17.20;97.70;;;;;;5112391;28;20274;-78
2022/06/06 03:06:01;;;;;;;1.95;0.25;;;17.20;98.30;;;;;;5109231;28;20191;-79
2022/06/06 03:08:55;;;;;;;0.43;0.30;;;17.30;97.40;;;;;;5113417;28;20274;-78
2022/06/06 03:11:40;;;;;;;0.77;0.25;;;17.40;96.50;;;;;;5109802;28;20194;-79
2022/06/06 03:14:26;;;;;;;0.17;0.17;;;17.30;94.60;;;;;;5113163;28;20247;-78
2022/06/06 03:23:15;;;;;;;0.20;0.20;;;17.10;93.50;;;;;;5104380;28;20201;-81
2022/06/06 03:25:51;;;;;;;0.30;0.20;;;17.10;94.30;;;;;;5105610;28;20243;-80
2022/06/06 03:28:31;;;;;;;1.92;0.40;;;17.10;93.80;;;;;;5113251;28;20195;-81
2022/06/06 03:31:10;;;;;;;0.15;0.15;;;17.20;94.90;;;;;;5112520;28;20198;-80
2022/06/06 03:33:49;;;;;;;0.43;0.10;;;17.30;95.10;;;;;;5112219;28;20277;-81
2022/06/06 03:36:31;;;;;;;0.85;0.30;;;17.30;96.60;;;;;;5111656;28;20271;-80
2022/06/06 03:39:10;;;;;;;0.10;0.10;;;17.30;97.70;;;;;;5112668;28;20222;-80
2022/06/06 03:41:51;;;;;;;0.32;0.20;;;17.40;98.10;;;;;;5109552;28;20718;-80
2022/06/06 03:44:31;;;;;;;0.73;0.13;;;17.40;97.40;;;;;;5113331;28;20210;-80
2022/06/06 03:47:10;;;;;;;0.60;0.20;;;17.40;97.90;;;;;;5111915;28;20601;-80
2022/06/06 03:49:50;;;;;;;0.40;0.30;;;17.40;98.80;;;;;;5104171;28;20202;-79
2022/06/06 03:52:28;;;;;;;0.95;0.30;;;17.50;97.70;;;;;;5112195;28;20199;-80
2022/06/06 03:55:10;;;;;;;0.30;0.20;;;17.50;98.40;;;;;;5112289;28;20220;-79
2022/06/06 03:57:42;;;;;;;0.20;0.20;;;17.40;95.20;;;;;;5109694;28;20195;-80
2022/06/06 04:00:15;;;;;;;1.48;0.15;;;17.40;97.10;;;;;;5119538;27;20218;-80
2022/06/06 04:02:47;;;;;;;0.25;0.10;;;17.50;97.70;;;;;;5123918;27;20194;-80
2022/06/06 04:05:20;;;;;;;1.38;0.38;;;17.50;97.90;;;;;;5124764;27;20212;-80
2022/06/06 04:07:53;;;;;;;0.10;0.10;;;17.50;98.00;;;;;;5133082;27;20234;-80
2022/06/06 04:10:30;;;;;;;0.22;0.10;;;17.50;97.80;;;;;;5111646;27;20252;-81
2022/06/06 04:13:22;;;;;;;1.50;0.20;;;17.50;97.30;;;;;;5093204;28;20195;-81
2022/06/06 04:16:00;;;;;;;0.43;0.20;;;17.50;96.90;;;;;;5100495;28;20190;-80
2022/06/06 04:18:38;;;;;;;2.03;0.40;;;17.50;97.10;;;;;;5110641;28;20202;-79
2022/06/06 04:21:20;;;;;;;0.20;0.20;;;17.50;96.10;;;;;;5111846;28;20190;-80
2022/06/06 04:24:25;;;;;;;0.40;0.20;;;17.50;96.00;;;;;;5100286;28;20198;-80
2022/06/06 04:27:05;;;;;;;0.38;0.30;;;17.40;95.80;;;;;;5097625;28;20599;-80
2022/06/06 04:29:47;;;;;;;0.22;0.20;;;17.50;96.70;;;;;;5111921;28;20213;-80
2022/06/06 04:32:29;;;;;;;1.85;0.15;;;17.40;95.50;;;;;;5109571;28;20202;-80
2022/06/06 04:35:10;;;;;;;0.10;0.10;;;17.30;95.30;;;;;;5112343;28;20222;-80
2022/06/06 04:37:46;;;;;;;0.55;0.20;;;17.40;94.60;;;;;;5107728;28;20532;-80
2022/06/06 04:40:23;;;;;;;0.40;0.10;;;17.40;94.10;;;;;;5102215;28;20596;-80
2022/06/06 04:42:59;;;;;;;0.40;0.28;;;17.40;94.70;;;;;;5111374;28;20210;-80
2022/06/06 04:45:35;;;;;;;0.10;0.10;;;17.40;94.10;;;;;;5110109;28;20194;-79
2022/06/06 04:48:08;;;;;;;0.20;0.20;;;17.40;94.50;;;;;;5110633;28;20202;-81
2022/06/06 04:50:42;;;;;;;0.13;0.13;;;17.40;94.40;;;;;;5111542;28;20689;-81
2022/06/06 04:53:17;;;;;;;2.97;0.15;;;17.40;94.60;;;;;;5104208;28;20668;-80
2022/06/06 04:55:51;;;;;;;1.33;0.30;;;17.40;93.40;;;;;;5109738;28;20198;-80
2022/06/06 04:58:24;;;;;;;0.45;0.20;;;17.40;92.30;;;;;;5110535;28;20209;-81
2022/06/06 05:00:54;;;;;;;0.28;0.13;;;17.40;89.50;;;;;;5106973;28;20203;-80
2022/06/06 05:03:25;;;;;;;0.43;0.20;;;17.40;87.60;;;;;;5110421;28;20194;-80
2022/06/06 05:06:12;;;;;;;0.80;0.22;;;17.50;86.60;;;;;;5091938;28;20199;-80
2022/06/06 05:09:04;;;;;;;1.70;0.20;;;17.50;85.80;;;;;;5110147;28;20229;-80
2022/06/06 05:11:47;;;;;;;0.25;0.20;;;17.60;80.30;;;;;;5105353;28;20234;-79
2022/06/06 05:14:35;;;;;;;1.75;0.20;;;17.50;77.90;;;;;;5106274;28;20194;-80
2022/06/06 05:17:23;;;;;;;0.28;0.28;;;17.50;76.60;;;;;;5110496;28;20566;-79
2022/06/06 05:20:07;;;;;;;0.30;0.30;;;17.50;75.40;;;;;;5103699;28;20245;-80
2022/06/06 05:23:04;;;;;;;0.93;0.30;;;17.50;80.50;;;;;;5111641;28;20237;-79
2022/06/06 05:25:52;;;;;;;0.45;0.30;;;17.40;84.30;;;;;;5092248;27;20196;-79
2022/06/06 05:28:49;;;;;;;0.60;0.40;;;17.40;84.20;;;;;;5107608;28;20207;-79
2022/06/06 05:31:40;;;;;;;0.70;0.22;;;17.40;83.20;;;;;;5122519;28;20233;-80
2022/06/06 05:34:15;;;;;;;0.32;0.17;;;17.30;86.30;;;;;;5114983;28;20733;-80
2022/06/06 05:37:14;;;;;;;0.40;0.30;;;17.40;87.00;;;;;;5107562;28;20533;-80
2022/06/06 05:40:04;;;;;;;0.40;0.20;;;17.30;85.70;;;;;;5097664;28;20326;-80
2022/06/06 05:43:03;;;;;;;0.75;0.20;;;17.40;87.90;;;;;;5107468;28;20289;-80
2022/06/06 05:45:46;;;;;;;0.90;0.20;;;17.40;86.70;;;;;;5110339;28;20725;-80
2022/06/06 05:48:33;;;;;;;0.20;0.17;;;17.40;83.40;;;;;;5109267;28;20218;-78
2022/06/06 05:51:18;;;;;;;1.00;0.20;;;17.40;83.20;;;;;;5106601;28;20333;-80
2022/06/06 05:54:02;;;;;;;0.13;0.10;;;17.40;84.80;;;;;;5111585;28;20626;-79
2022/06/06 05:57:11;;;;;;;1.02;0.85;;;17.40;80.00;;;;;;5111155;28;20199;-79
2022/06/06 06:00:19;;;;;;;0.35;0.35;;;17.30;83.10;;;;;;5068089;28;20231;-79
2022/06/06 06:03:29;;;;;;;0.30;0.20;;;17.30;82.40;;;;;;5079353;28;20270;-79
2022/06/06 06:06:08;;;;;;;1.33;0.47;;;17.20;84.20;;;;;;5106779;27;20202;-79
2022/06/06 06:09:03;;;;;;;0.30;0.20;;;17.20;86.20;;;;;;5117177;27;20701;-79
2022/06/06 06:11:49;;;;;;;0.30;0.10;;;17.20;86.50;;;;;;5111328;27;20252;-79
2022/06/06 06:14:31;;;;;;;1.73;0.20;;;17.10;87.10;;;;;;5110489;28;20199;-79
2022/06/06 06:17:05;;;;;;;0.70;0.55;;;17.10;87.50;;;;;;5109975;28;20194;-79
2022/06/06 06:19:43;;;;;;;0.43;0.38;;;17.10;87.70;;;;;;5108243;28;20218;-80
2022/06/06 06:22:15;;;;;;;1.40;0.70;;;17.10;86.10;;;;;;5110359;28;20199;-80
2022/06/06 06:24:46;;;;;;;2.10;0.50;;;17.00;86.50;;;;;;5110973;28;20195;-80
2022/06/06 06:27:17;;;;;;;2.47;0.40;;;17.00;78.70;;;;;;5108853;28;20195;-80
2022/06/06 06:29:48;;;;;;;1.48;0.63;;;16.90;75.40;;;;;;5108651;28;20239;-79
2022/06/06 06:32:36;;;;;;;2.05;0.30;;;16.90;78.10;;;;;;5102916;28;20206;-80
2022/06/06 06:35:16;;;;;;;0.32;0.20;;;16.90;78.70;;;;;;5103433;28;20681;-80
2022/06/06 06:37:59;;;;;;;1.48;0.25;;;16.90;75.20;;;;;;5099917;28;20210;-79
2022/06/06 06:40:45;;;;;;;0.60;0.30;;;16.80;72.80;;;;;;5103531;28;20225;-80
2022/06/06 06:43:29;;;;;;;2.05;0.50;;;16.70;72.80;;;;;;5108750;28;20783;-79
2022/06/06 06:46:03;;;;;;;0.55;0.40;;;16.60;73.90;;;;;;5109336;28;20194;-80
2022/06/06 06:48:37;;;;;;;0.20;0.20;;;16.50;73.80;;;;;;5105424;28;20191;-80
2022/06/06 06:51:16;;;;;;;2.28;0.30;;;16.40;74.30;;;;;;5108643;28;20675;-79
2022/06/06 06:54:04;;;;;;;0.50;0.25;;;16.40;74.10;;;;;;5110780;28;20209;-79
2022/06/06 06:56:48;;;;;;;0.77;0.22;;;16.40;74.80;;;;;;5094722;28;20195;-77
2022/06/06 06:59:31;;;;;;;0.30;0.22;;;16.30;74.40;;;;;;5085499;28;20199;-78
2022/06/06 07:11:21;;;;;;;0.82;0.40;;;16.20;82.10;;;;;;5110474;28;20194;-80
2022/06/06 07:14:05;;;;;;;0.32;0.10;;;16.10;81.90;;;;;;5089460;28;20203;-79
2022/06/06 07:16:38;;;;;;;0.63;0.40;;;16.10;77.80;;;;;;5103002;28;20203;-80
2022/06/06 07:19:12;;;;;;;0.82;0.30;;;16.00;80.20;;;;;;5108184;28;20198;-80
2022/06/06 07:21:45;;;;;;;1.25;0.40;;;15.90;80.50;;;;;;5110986;28;20277;-80
2022/06/06 07:24:21;;;;;;;0.40;0.22;;;15.90;81.30;;;;;;5110514;28;20187;-80
2022/06/06 07:26:52;;;;;;;1.15;0.65;;;15.90;82.20;;;;;;5110293;28;20187;-80
2022/06/06 07:29:23;;;;;;;0.73;0.60;;;15.90;82.90;;;;;;5108972;28;20202;-80
2022/06/06 07:32:22;;;;;;;2.97;0.70;;;15.80;80.70;;;;;;5110728;28;20199;-79
2022/06/06 07:35:03;;;;;;;1.52;0.70;;;15.80;80.70;;;;;;5110441;28;20715;-79
2022/06/06 07:37:52;;;;;;;2.40;0.55;;;15.90;83.10;;;;;;5110124;28;20224;-80
2022/06/06 07:40:37;;;;;;;0.32;0.30;;;15.70;84.10;;;;;;5109306;28;20701;-79
2022/06/06 07:43:33;;;;;;;0.30;0.30;;;15.70;82.90;;;;;;5113440;28;20222;-79
2022/06/06 07:46:17;;;;;;;0.63;0.63;;;15.70;85.20;;;;;;5114277;28;20206;-79
2022/06/06 07:48:59;;;;;;;1.30;0.50;;;15.60;84.80;;;;;;5112093;28;20610;-79
2022/06/06 07:51:39;;;;;;;1.20;0.57;;;15.60;83.50;;;;;;5113721;28;20195;-80
2022/06/06 07:54:21;;;;;;;0.77;0.50;;;15.60;85.40;;;;;;5114432;28;20607;-79
2022/06/06 07:56:59;;;;;;;0.90;0.30;;;15.60;83.00;;;;;;5120333;27;20650;-79
2022/06/06 07:59:49;;;;;;;1.40;0.60;;;15.50;84.80;;;;;;5108240;27;20206;-78
2022/06/06 08:02:37;;;;;;;2.25;0.73;;;15.40;85.60;;;;;;5110235;28;20187;-80
2022/06/06 08:05:25;;;;;;;1.77;1.23;;;15.40;88.30;;;;;;5104522;28;20286;-80
2022/06/06 08:08:08;;;;;;;2.67;0.90;;;15.40;88.50;;;;;;5101422;28;20231;-80
2022/06/06 08:10:42;;;;;;;0.90;0.57;;;15.40;90.10;;;;;;5102519;28;20646;-80
2022/06/06 08:13:30;;;;;;;1.42;0.70;;;15.40;90.40;;;;;;5113766;28;20255;-79
2022/06/06 08:16:26;;;;;;;1.55;0.70;;;15.40;90.10;;;;;;5118319;28;20197;-80
2022/06/06 08:19:22;;;;;;;1.20;0.40;;;15.30;90.40;;;;;;5110913;27;20840;-80
2022/06/06 08:21:54;;;;;;;1.15;0.60;;;15.30;90.80;;;;;;5095127;28;20201;-81
2022/06/06 08:24:29;;;;;;;0.50;0.50;;;15.20;91.10;;;;;;5113792;28;20209;-80
2022/06/06 08:27:03;;;;;;;1.02;0.60;;;15.20;92.30;;;;;;5113232;28;20226;-80
2022/06/06 08:29:39;;;;;;;0.70;0.38;;;15.20;93.50;;;;;;5111121;27;20194;-82
2022/06/06 08:32:10;;;;;;;0.85;0.68;;;15.20;94.60;;;;;;5112753;28;20205;-80
2022/06/06 08:34:41;;;;;;;0.65;0.50;;;15.00;93.40;;;;;;5112118;28;20203;-80
2022/06/06 08:37:32;;;;;;;1.15;0.70;;;15.00;94.20;;;;;;5113052;28;20210;-80
2022/06/06 08:40:15;;;;;;;0.85;0.50;;;15.00;94.60;;;;;;5112867;28;20265;-79
2022/06/06 08:43:00;;;;;;;0.93;0.68;;;15.00;95.20;;;;;;5111094;28;20214;-79
2022/06/06 08:45:53;;;;;;;1.67;1.00;;;14.90;95.40;;;;;;5110204;28;20662;-80
2022/06/06 08:48:41;;;;;;;1.35;0.85;;;14.80;96.40;;;;;;5105255;28;20550;-80
2022/06/06 08:51:26;;;;;;;1.40;0.60;;;14.80;97.00;;;;;;5101609;28;20263;-80
2022/06/06 08:54:29;;;;;;;0.85;0.82;;;14.70;97.80;;;;;;5112717;28;20207;-79
2022/06/06 08:57:16;;;;;;;0.80;0.60;;;14.70;98.80;;;;;;5111131;28;20256;-80
2022/06/06 09:00:20;;;;;;;0.80;0.70;;;14.70;98.50;;;;;;5110569;28;20244;-81
2022/06/06 09:03:22;;;;;;;2.10;1.15;;;14.70;99.00;;;;;;5104155;28;20607;-82
2022/06/06 09:06:36;;;;;;;3.22;0.80;;;14.70;99.20;;;;;;5097342;28;20198;-82
2022/06/06 09:09:50;;;;;;;1.25;0.80;;;14.60;99.90;;;;;;5106265;28;20195;-82
2022/06/06 09:13:08;;;;;;;1.65;0.68;;;14.60;99.90;;;;;;5112198;28;20206;-80
2022/06/06 09:16:14;;;;;;;0.95;0.60;;;14.50;99.90;;;;;;5104955;28;20202;-80
2022/06/06 09:19:17;;;;;;;2.20;1.23;;;14.40;99.90;;;;;;5110482;28;20255;-80
2022/06/06 09:22:00;;;;;;;1.85;0.98;;;14.40;99.90;;;;;;5112143;28;20300;-80
2022/06/06 09:25:00;;;;;;;1.75;0.90;;;14.40;99.90;;;;;;5112013;28;20206;-80
2022/06/06 09:27:59;;;;;;;1.55;0.95;;;14.40;99.90;;;;;;5110668;28;20234;-80
2022/06/06 09:30:54;;;;;;;1.75;0.80;;;14.40;99.90;;;;;;5111855;27;20277;-80
2022/06/06 09:34:07;;;;;;;3.15;1.23;;;14.40;99.90;;;;;;5109547;28;20207;-80
2022/06/06 09:36:49;;;;;;;1.63;0.80;;;14.50;99.90;;;;;;5111980;28;20471;-81
2022/06/06 09:39:35;;;;;;;1.75;0.70;;;14.40;99.90;;;;;;5112069;28;20191;-82
2022/06/06 09:42:17;;;;;;;1.17;0.82;;;14.30;99.90;;;;;;5100516;28;20313;-82
2022/06/06 09:45:29;;;;;;;1.65;0.75;;;14.30;99.90;;;;;;5111835;28;20258;-82
2022/06/06 09:48:39;;;;;;;2.08;1.30;;;14.30;99.90;;;;;;5108750;28;20217;-82
2022/06/06 09:51:35;;;;;;;2.20;0.90;;;14.40;99.90;;;;;;5106637;28;20584;-82
2022/06/06 10:01:05;;;;;;;1.17;1.00;;;14.30;99.90;;;;;;5091810;28;20225;-75
2022/06/06 10:04:07;;;;;;;1.85;1.10;;;14.20;99.90;;;;;;5097902;28;20192;-75
2022/06/06 10:07:13;;;;;;;2.00;1.50;;;14.20;99.90;;;;;;5086852;28;20657;-75
2022/06/06 10:10:22;;;;;;;3.97;1.50;;;14.20;99.90;;;;;;5099281;28;20664;-75
2022/06/06 10:13:17;;;;;;;2.35;0.93;;;14.20;99.90;;;;;;5090895;28;20244;-75
2022/06/06 10:16:06;;;;;;;1.13;0.68;;;14.10;99.90;;;;;;5107353;27;20199;-75
2022/06/06 10:19:07;;;;;;;1.77;0.80;;;14.10;99.90;;;;;;5106824;28;20322;-75
2022/06/06 10:21:59;;;;;;;1.92;0.82;;;14.10;99.90;;;;;;5110558;28;20232;-76
2022/06/06 10:25:08;;;;;;;1.95;0.88;;;14.10;99.90;;;;;;5108755;28;20266;-76
2022/06/06 10:28:01;;;;;;;2.10;0.85;;;14.10;99.90;;;;;;5091836;28;20441;-75
2022/06/06 10:30:42;;;;;;;2.90;0.95;;;14.10;99.90;;;;;;5102459;28;20248;-75
2022/06/06 10:33:50;;;;;;;1.60;0.75;;;14.00;99.90;;;;;;5105223;28;20582;-76
2022/06/06 10:36:43;;;;;;;1.58;0.80;;;14.00;99.90;;;;;;5110619;28;20198;-75
2022/06/06 10:39:55;;;;;;;2.25;0.90;;;14.00;99.90;;;;;;5108567;28;20205;-76
2022/06/06 10:43:01;;;;;;;1.77;0.80;;;14.00;99.90;;;;;;5090985;27;20222;-76
2022/06/06 10:45:38;;;;;;;2.33;0.70;;;13.90;99.90;;;;;;5107534;28;20296;-76
2022/06/06 10:48:28;;;;;;;2.13;0.80;;;13.90;99.90;;;;;;5108534;28;20281;-75
2022/06/06 10:51:41;;;;;;;0.75;0.60;;;13.90;99.90;;;;;;5110361;28;20199;-76
2022/06/06 10:54:47;;;;;;;1.90;0.82;;;13.80;99.90;;;;;;5110236;28;20261;-75
2022/06/06 10:58:04;;;;;;;1.50;0.80;;;13.80;99.90;;;;;;5110748;28;20225;-76
2022/06/06 11:01:09;;;;;;;2.45;0.88;;;13.80;99.90;;;;;;5108895;28;20222;-76
2022/06/06 11:04:08;;;;;;;2.05;0.77;;;13.70;99.90;;;;;;5097460;28;20199;-75
2022/06/06 11:07:06;;;;;;;1.95;0.70;;;13.70;99.90;;;;;;5103617;27;20198;-76
2022/06/06 11:10:16;;;;;;;1.70;0.85;;;13.70;99.90;;;;;;5110338;27;20206;-75
2022/06/06 11:13:14;;;;;;;2.10;0.82;;;13.60;99.90;;;;;;5103835;28;20199;-75
2022/06/06 11:15:52;;;;;;;1.40;0.77;;;13.70;99.90;;;;;;5093044;28;20195;-75
2022/06/06 11:18:53;;;;;;;2.30;0.68;;;13.70;99.90;;;;;;5099381;28;20194;-75
2022/06/06 11:21:50;;;;;;;2.25;0.70;;;13.70;99.90;;;;;;5114338;28;20217;-75
2022/06/06 11:24:28;;;;;;;2.58;0.77;;;13.70;99.90;;;;;;5114422;28;20221;-75
2022/06/06 11:27:24;;;;;;;1.00;0.55;;;13.80;99.90;;;;;;5113963;28;20201;-76
2022/06/06 11:30:20;;;;;;;2.20;0.80;;;13.70;99.90;;;;;;5113968;28;20198;-77
2022/06/06 11:33:30;;;;;;;2.47;0.80;;;13.70;99.90;;;;;;5092755;28;20195;-78
2022/06/06 11:36:25;;;;;;;1.60;0.77;;;13.70;99.90;;;;;;5088578;28;20200;-78
2022/06/06 11:39:32;;;;;;;1.40;0.60;;;13.70;99.90;;;;;;5085249;28;20586;-76
2022/06/06 11:42:25;;;;;;;1.15;0.70;;;13.70;99.90;;;;;;5108787;28;20226;-76
2022/06/06 11:45:28;;;;;;;2.40;0.73;;;13.60;99.90;;;;;;5113625;28;20649;-79
2022/06/06 11:48:22;;;;;;;1.60;0.50;;;13.60;99.90;;;;;;5110853;28;20191;-75
2022/06/06 11:51:27;;;;;;;1.27;0.70;;;13.60;99.90;;;;;;5112092;27;20569;-76
2022/06/06 11:54:29;;;;;;;1.80;0.70;;;13.60;99.90;;;;;;5113748;28;20202;-75
2022/06/06 11:57:33;;;;;;;2.47;0.80;;;13.60;99.90;;;;;;5108482;28;20209;-76
2022/06/06 12:00:22;;;;;;;5.93;0.77;;;13.60;99.90;;;;;;5113096;27;20190;-76
2022/06/06 12:03:30;;;;;;;1.70;0.60;;;13.60;99.90;;;;;;5102773;28;20677;-77
2022/06/06 12:06:34;;;;;;;1.17;0.75;;;13.60;99.90;;;;;;5090145;27;20198;-76
2022/06/06 12:09:19;;;;;;;0.90;0.50;;;13.60;99.90;;;;;;5093904;28;20198;-76
2022/06/06 12:12:24;;;;;;;1.13;0.45;;;13.50;99.90;;;;;;5113629;28;20194;-77
2022/06/06 12:15:11;;;;;;;1.38;0.70;;;13.50;99.90;;;;;;5107747;27;20198;-76
2022/06/06 12:17:51;;;;;;;1.48;0.60;;;13.50;99.90;;;;;;5112672;28;20255;-76
2022/06/06 12:21:02;;;;;;;1.60;0.63;;;13.40;99.90;;;;;;5112284;28;20202;-76
2022/06/06 12:23:51;;;;;;;1.98;0.63;;;13.40;99.90;;;;;;5096455;27;20315;-76
2022/06/06 12:26:35;;;;;;;2.92;0.80;;;13.40;99.90;;;;;;5104598;28;20195;-76
2022/06/06 12:29:38;;;;;;;2.17;0.60;;;13.40;99.90;;;;;;5113156;28;20199;-76
2022/06/06 12:32:35;;;;;;;1.98;0.70;;;13.40;99.90;;;;;;5106246;28;20228;-76
2022/06/06 12:35:11;;;;;;;2.65;0.82;;;13.40;99.90;;;;;;5109736;28;20206;-76
2022/06/06 12:37:52;;;;;;;1.98;0.60;;;13.40;99.90;;;;;;5111050;27;20202;-76
2022/06/06 12:40:38;;;;;;;1.73;0.82;;;13.40;99.90;;;;;;5112913;28;20599;-76
2022/06/06 12:43:19;;;;;;;2.72;0.90;;;13.40;99.90;;;;;;5109165;28;20317;-76
2022/06/06 12:46:03;;;;;;;1.85;0.70;;;13.40;99.90;;;;;;5092476;28;20191;-76
2022/06/06 12:49:07;;;;;;;1.38;0.68;;;13.40;99.90;;;;;;5107181;28;20194;-75
2022/06/06 12:51:58;;;;;;;1.95;0.57;;;13.40;99.90;;;;;;5103647;27;20191;-76
2022/06/06 12:57:37;;;;;;;1.83;0.60;;;13.40;99.90;;;;;;5089332;28;20206;-77
2022/06/06 13:00:12;;;;;;;1.02;0.47;;;13.40;99.90;;;;;;5112505;28;20592;-76
2022/06/06 13:03:07;;;;;;;1.80;0.40;;;13.30;99.90;;;;;;5107181;28;20358;-76
2022/06/06 13:05:44;;;;;;;1.15;0.50;;;13.30;99.90;;;;;;5092323;28;20207;-79
2022/06/06 13:08:53;;;;;;;0.77;0.50;;;13.30;99.90;;;;;;5106113;28;20228;-78
2022/06/06 13:11:51;;;;;;;1.42;0.52;;;13.20;99.90;;;;;;5107754;28;20584;-76
2022/06/06 13:14:53;;;;;;;0.95;0.50;;;13.20;99.90;;;;;;5111450;28;20205;-76
2022/06/06 13:17:39;;;;;;;1.63;0.57;;;13.20;99.90;;;;;;5091671;28;20202;-76
2022/06/06 13:20:27;;;;;;;3.10;0.70;;;13.20;99.90;;;;;;5110116;28;20206;-75
2022/06/06 13:23:23;;;;;;;1.25;0.55;;;13.20;99.90;;;;;;5112251;28;20229;-75
2022/06/06 13:26:09;;;;;;;1.33;0.60;;;13.20;99.90;;;;;;5113129;27;20237;-75
2022/06/06 13:28:50;;;;;;;2.53;0.68;;;13.20;99.90;;;;;;5113883;27;20685;-75
2022/06/06 13:31:44;;;;;;;0.77;0.50;;;13.10;99.90;;;;;;5112109;28;20677;-75
2022/06/06 13:34:30;;;;;;;1.90;0.60;;;13.10;99.90;;;;;;5109842;28;20194;-76
2022/06/06 13:37:16;;;;;;;1.95;0.57;;;13.10;99.90;;;;;;5111782;28;20195;-75
2022/06/06 13:40:22;;;;;;;1.70;0.60;;;13.10;99.90;;;;;;5111289;27;20699;-76
2022/06/06 13:43:26;;;;;;;1.15;0.50;;;13.10;99.90;;;;;;5107796;28;20256;-75
2022/06/06 13:46:13;;;;;;;1.35;0.50;;;13.10;99.90;;;;;;5093831;28;20245;-75
2022/06/06 13:49:08;;;;;;;1.70;0.47;;;13.20;99.90;;;;;;5106720;28;20713;-75
2022/06/06 13:51:54;;;;;;;2.42;0.60;;;13.10;99.90;;;;;;5105740;28;20653;-76
2022/06/06 13:54:33;;;;;;;2.92;0.73;;;13.10;99.90;;;;;;5111560;28;20195;-76
2022/06/06 13:57:22;;;;;;;1.90;0.55;;;13.00;99.90;;;;;;5111490;28;20202;-76
2022/06/06 14:00:18;;;;;;;1.27;0.70;;;13.00;99.90;;;;;;5111183;28;20209;-76
2022/06/06 14:02:59;;;;;;;1.52;0.52;;;13.00;99.90;;;;;;5104587;28;20234;-76
2022/06/06 14:05:47;;;;;;;1.70;0.60;;;13.00;99.90;;;;;;5111351;28;20259;-75
2022/06/06 14:08:20;;;;;;;2.45;0.68;;;13.00;99.90;;;;;;5105787;28;20226;-75
2022/06/06 14:11:10;;;;;;;2.17;0.80;;;13.00;99.90;;;;;;5111238;28;20240;-75
2022/06/06 14:13:50;;;;;;;2.17;0.60;;;13.00;99.90;;;;;;5111079;28;20203;-75
2022/06/06 14:16:32;;;;;;;2.03;0.80;;;13.00;99.90;;;;;;5111102;28;20190;-75
2022/06/06 14:19:13;;;;;;;1.50;0.52;;;13.00;99.90;;;;;;5108685;28;20252;-75
2022/06/06 14:21:52;;;;;;;2.03;0.80;;;13.10;99.90;;;;;;5110893;27;20226;-75
2022/06/06 14:24:24;;;;;;;1.23;0.60;;;13.00;99.90;;;;;;5105723;28;20195;-76
2022/06/06 14:26:58;;;;;;;1.48;0.70;;;13.00;99.90;;;;;;5111471;27;20692;-75
2022/06/06 14:29:33;;;;;;;2.50;0.80;;;13.00;99.90;;;;;;5110869;28;20198;-78
2022/06/06 14:32:07;;;;;;;2.42;0.82;;;12.90;99.90;;;;;;5110359;28;20665;-74
2022/06/06 14:34:43;;;;;;;1.85;0.70;;;12.90;99.90;;;;;;5101150;28;20201;-78
2022/06/06 14:37:19;;;;;;;1.83;0.70;;;12.90;99.90;;;;;;5111180;28;20198;-78
2022/06/06 14:39:52;;;;;;;3.60;0.93;;;12.90;99.90;;;;;;5110154;28;20198;-78
2022/06/06 14:42:28;;;;;;;1.75;0.63;;;12.80;99.90;;;;;;5106589;28;20226;-78
2022/06/06 14:45:02;;;;;;;4.30;0.80;;;12.80;99.90;;;;;;5108462;28;20190;-78